sensor_id;sensor_type;location;lat;lon;timestamp;temperature;humidity
12053;DHT22;6087;48.982;12.064;2022-10-16T00:00:41;15.00;99.90
12053;DHT22;6087;48.982;12.064;2022-10-16T00:03:09;15.00;99.90
12053;DHT22;6087;48.982;12.064;2022-10-16T00:05:39;15.00;99.90
12053;DHT22;6087;48.982;12.064;2022-10-16T00:08:07;15.00;99.90
12053;DHT22;6087;48.982;12.064;2022-10-16T00:10:34;15.00;99.90
12053;DHT22;6087;48.982;12.064;2022-10-16T00:13:01;15.00;99.90
12053;DHT22;6087;48.982;12.064;2022-10-16T00:15:30;15.00;99.90
12053;DHT22;6087;48.982;12.064;2022-10-16T00:17:59;14.90;99.90
12053;DHT22;6087;48.982;12.064;2022-10-16T00:20:26;15.00;99.90
12053;DHT22;6087;48.982;12.064;2022-10-16T00:22:53;14.90;99.90
12053;DHT22;6087;48.982;12.064;2022-10-16T00:25:19;14.90;99.90
12053;DHT22;6087;48.982;12.064;2022-10-16T00:27:46;14.90;99.90
12053;DHT22;6087;48.982;12.064;2022-10-16T00:30:13;14.90;99.90
12053;DHT22;6087;48.982;12.064;2022-10-16T00:32:42;14.90;99.90
12053;DHT22;6087;48.982;12.064;2022-10-16T00:35:08;14.90;99.90
12053;DHT22;6087;48.982;12.064;2022-10-16T00:37:35;14.90;99.90
12053;DHT22;6087;48.982;12.064;2022-10-16T00:40:03;14.90;99.90
12053;DHT22;6087;48.982;12.064;2022-10-16T00:42:30;14.90;99.90
12053;DHT22;6087;48.982;12.064;2022-10-16T00:44:57;14.90;99.90
12053;DHT22;6087;48.982;12.064;2022-10-16T00:47:26;14.90;99.90
12053;DHT22;6087;48.982;12.064;2022-10-16T00:49:59;14.90;99.90
12053;DHT22;6087;48.982;12.064;2022-10-16T00:52:27;14.90;99.90
12053;DHT22;6087;48.982;12.064;2022-10-16T00:54:55;14.90;99.90
12053;DHT22;6087;48.982;12.064;2022-10-16T00:57:23;14.90;99.90
12053;DHT22;6087;48.982;12.064;2022-10-16T00:59:50;14.90;99.90
12053;DHT22;6087;48.982;12.064;2022-10-16T01:02:17;14.80;99.90
12053;DHT22;6087;48.982;12.064;2022-10-16T01:04:46;14.80;99.90
12053;DHT22;6087;48.982;12.064;2022-10-16T01:07:24;14.80;99.90
12053;DHT22;6087;48.982;12.064;2022-10-16T01:10:02;14.80;99.90
12053;DHT22;6087;48.982;12.064;2022-10-16T01:12:38;14.80;99.90
12053;DHT22;6087;48.982;12.064;2022-10-16T01:15:11;14.80;99.90
12053;DHT22;6087;48.982;12.064;2022-10-16T01:17:45;14.80;99.90
12053;DHT22;6087;48.982;12.064;2022-10-16T01:20:21;14.80;99.90
12053;DHT22;6087;48.982;12.064;2022-10-16T01:23:01;14.80;99.90
12053;DHT22;6087;48.982;12.064;2022-10-16T01:25:37;14.80;99.90
12053;DHT22;6087;48.982;12.064;2022-10-16T01:28:09;14.80;99.90
12053;DHT22;6087;48.982;12.064;2022-10-16T01:30:40;14.80;99.90
12053;DHT22;6087;48.982;12.064;2022-10-16T01:33:12;14.80;99.90
12053;DHT22;6087;48.982;12.064;2022-10-16T01:35:43;14.80;99.90
12053;DHT22;6087;48.982;12.064;2022-10-16T01:38:16;14.80;99.90
12053;DHT22;6087;48.982;12.064;2022-10-16T01:40:47;14.80;99.90
12053;DHT22;6087;48.982;12.064;2022-10-16T01:43:20;14.80;99.90
12053;DHT22;6087;48.982;12.064;2022-10-16T01:45:49;14.80;99.90
12053;DHT22;6087;48.982;12.064;2022-10-16T01:48:18;14.80;99.90
12053;DHT22;6087;48.982;12.064;2022-10-16T01:50:54;14.80;99.90
12053;DHT22;6087;48.982;12.064;2022-10-16T01:53:22;14.70;99.90
12053;DHT22;6087;48.982;12.064;2022-10-16T01:55:52;14.70;99.90
12053;DHT22;6087;48.982;12.064;2022-10-16T01:58:24;14.70;99.90
12053;DHT22;6087;48.982;12.064;2022-10-16T02:00:52;14.70;99.90
12053;DHT22;6087;48.982;12.064;2022-10-16T02:03:19;14.70;99.90
12053;DHT22;6087;48.982;12.064;2022-10-16T02:05:50;14.70;99.90
12053;DHT22;6087;48.982;12.064;2022-10-16T02:08:18;14.70;99.90
12053;DHT22;6087;48.982;12.064;2022-10-16T02:10:45;14.70;99.90
12053;DHT22;6087;48.982;12.064;2022-10-16T02:13:15;14.70;99.90
12053;DHT22;6087;48.982;12.064;2022-10-16T02:15:45;14.70;99.90
12053;DHT22;6087;48.982;12.064;2022-10-16T02:18:12;14.70;99.90
12053;DHT22;6087;48.982;12.064;2022-10-16T02:20:45;14.70;99.90
12053;DHT22;6087;48.982;12.064;2022-10-16T02:23:27;14.70;99.90
12053;DHT22;6087;48.982;12.064;2022-10-16T02:25:58;14.70;99.90
12053;DHT22;6087;48.982;12.064;2022-10-16T02:28:29;14.70;99.90
12053;DHT22;6087;48.982;12.064;2022-10-16T02:31:02;14.70;99.90
12053;DHT22;6087;48.982;12.064;2022-10-16T02:33:31;14.70;99.90
12053;DHT22;6087;48.982;12.064;2022-10-16T02:35:59;14.60;99.90
12053;DHT22;6087;48.982;12.064;2022-10-16T02:38:27;14.60;99.90
12053;DHT22;6087;48.982;12.064;2022-10-16T02:40:55;14.60;99.90
12053;DHT22;6087;48.982;12.064;2022-10-16T02:43:22;14.60;99.90
12053;DHT22;6087;48.982;12.064;2022-10-16T02:45:51;14.60;99.90
12053;DHT22;6087;48.982;12.064;2022-10-16T02:48:19;14.60;99.90
12053;DHT22;6087;48.982;12.064;2022-10-16T02:50:46;14.60;99.90
12053;DHT22;6087;48.982;12.064;2022-10-16T02:53:13;14.60;99.90
12053;DHT22;6087;48.982;12.064;2022-10-16T02:55:40;14.60;99.90
12053;DHT22;6087;48.982;12.064;2022-10-16T02:58:09;14.60;99.90
12053;DHT22;6087;48.982;12.064;2022-10-16T03:00:36;14.60;99.90
12053;DHT22;6087;48.982;12.064;2022-10-16T03:03:03;14.60;99.90
12053;DHT22;6087;48.982;12.064;2022-10-16T03:05:31;14.60;99.90
12053;DHT22;6087;48.982;12.064;2022-10-16T03:07:58;14.60;99.90
12053;DHT22;6087;48.982;12.064;2022-10-16T03:10:26;14.60;99.90
12053;DHT22;6087;48.982;12.064;2022-10-16T03:12:53;14.60;99.90
12053;DHT22;6087;48.982;12.064;2022-10-16T03:15:20;14.60;99.90
12053;DHT22;6087;48.982;12.064;2022-10-16T03:17:47;14.60;99.90
12053;DHT22;6087;48.982;12.064;2022-10-16T03:20:14;14.60;99.90
12053;DHT22;6087;48.982;12.064;2022-10-16T03:22:42;14.60;99.90
12053;DHT22;6087;48.982;12.064;2022-10-16T03:25:09;14.60;99.90
12053;DHT22;6087;48.982;12.064;2022-10-16T03:27:36;14.50;99.90
12053;DHT22;6087;48.982;12.064;2022-10-16T03:30:03;14.50;99.90
12053;DHT22;6087;48.982;12.064;2022-10-16T03:32:30;14.50;99.90
12053;DHT22;6087;48.982;12.064;2022-10-16T03:34:57;14.50;99.90
12053;DHT22;6087;48.982;12.064;2022-10-16T03:37:24;14.50;99.90
12053;DHT22;6087;48.982;12.064;2022-10-16T03:39:53;14.50;99.90
12053;DHT22;6087;48.982;12.064;2022-10-16T03:42:20;14.50;99.90
12053;DHT22;6087;48.982;12.064;2022-10-16T03:44:47;14.50;99.90
12053;DHT22;6087;48.982;12.064;2022-10-16T03:47:14;14.50;99.90
12053;DHT22;6087;48.982;12.064;2022-10-16T03:49:41;14.50;99.90
12053;DHT22;6087;48.982;12.064;2022-10-16T03:52:07;14.50;99.90
12053;DHT22;6087;48.982;12.064;2022-10-16T03:54:34;14.50;99.90
12053;DHT22;6087;48.982;12.064;2022-10-16T03:57:03;14.50;99.90
12053;DHT22;6087;48.982;12.064;2022-10-16T03:59:30;14.50;99.90
12053;DHT22;6087;48.982;12.064;2022-10-16T04:01:57;14.50;99.90
12053;DHT22;6087;48.982;12.064;2022-10-16T04:04:24;14.50;99.90
12053;DHT22;6087;48.982;12.064;2022-10-16T04:06:51;14.50;99.90
12053;DHT22;6087;48.982;12.064;2022-10-16T04:09:18;14.40;99.90
12053;DHT22;6087;48.982;12.064;2022-10-16T04:11:45;14.40;99.90
12053;DHT22;6087;48.982;12.064;2022-10-16T04:14:13;14.40;99.90
12053;DHT22;6087;48.982;12.064;2022-10-16T04:16:40;14.40;99.90
12053;DHT22;6087;48.982;12.064;2022-10-16T04:19:08;14.40;99.90
12053;DHT22;6087;48.982;12.064;2022-10-16T04:21:35;14.40;99.90
12053;DHT22;6087;48.982;12.064;2022-10-16T04:24:02;14.40;99.90
12053;DHT22;6087;48.982;12.064;2022-10-16T04:26:29;14.40;99.90
12053;DHT22;6087;48.982;12.064;2022-10-16T04:28:56;14.40;99.90
12053;DHT22;6087;48.982;12.064;2022-10-16T04:31:24;14.40;99.90
12053;DHT22;6087;48.982;12.064;2022-10-16T04:33:51;14.40;99.90
12053;DHT22;6087;48.982;12.064;2022-10-16T04:36:18;14.40;99.90
12053;DHT22;6087;48.982;12.064;2022-10-16T04:38:45;14.40;99.90
12053;DHT22;6087;48.982;12.064;2022-10-16T04:41:12;14.40;99.90
12053;DHT22;6087;48.982;12.064;2022-10-16T04:43:39;14.40;99.90
12053;DHT22;6087;48.982;12.064;2022-10-16T04:46:06;14.40;99.90
12053;DHT22;6087;48.982;12.064;2022-10-16T04:48:34;14.40;99.90
12053;DHT22;6087;48.982;12.064;2022-10-16T04:51:01;14.40;99.90
12053;DHT22;6087;48.982;12.064;2022-10-16T04:53:28;14.40;99.90
12053;DHT22;6087;48.982;12.064;2022-10-16T04:55:55;14.40;99.90
12053;DHT22;6087;48.982;12.064;2022-10-16T04:58:22;14.40;99.90
12053;DHT22;6087;48.982;12.064;2022-10-16T05:00:49;14.30;99.90
12053;DHT22;6087;48.982;12.064;2022-10-16T05:03:16;14.30;99.90
12053;DHT22;6087;48.982;12.064;2022-10-16T05:05:46;14.30;99.90
12053;DHT22;6087;48.982;12.064;2022-10-16T05:08:14;14.30;99.90
12053;DHT22;6087;48.982;12.064;2022-10-16T05:10:42;14.30;99.90
12053;DHT22;6087;48.982;12.064;2022-10-16T05:13:10;14.30;99.90
12053;DHT22;6087;48.982;12.064;2022-10-16T05:15:37;14.30;99.90
12053;DHT22;6087;48.982;12.064;2022-10-16T05:18:04;14.30;99.90
12053;DHT22;6087;48.982;12.064;2022-10-16T05:20:31;14.30;99.90
12053;DHT22;6087;48.982;12.064;2022-10-16T05:22:59;14.30;99.90
12053;DHT22;6087;48.982;12.064;2022-10-16T05:25:26;14.30;99.90
12053;DHT22;6087;48.982;12.064;2022-10-16T05:27:53;14.30;99.90
12053;DHT22;6087;48.982;12.064;2022-10-16T05:30:20;14.30;99.90
12053;DHT22;6087;48.982;12.064;2022-10-16T05:32:48;14.30;99.90
12053;DHT22;6087;48.982;12.064;2022-10-16T05:35:15;14.30;99.90
12053;DHT22;6087;48.982;12.064;2022-10-16T05:37:43;14.30;99.90
12053;DHT22;6087;48.982;12.064;2022-10-16T05:40:12;14.30;99.90
12053;DHT22;6087;48.982;12.064;2022-10-16T05:42:39;14.30;99.90
12053;DHT22;6087;48.982;12.064;2022-10-16T05:45:08;14.30;99.90
12053;DHT22;6087;48.982;12.064;2022-10-16T05:47:35;14.20;99.90
12053;DHT22;6087;48.982;12.064;2022-10-16T05:50:03;14.20;99.90
12053;DHT22;6087;48.982;12.064;2022-10-16T05:52:30;14.20;99.90
12053;DHT22;6087;48.982;12.064;2022-10-16T05:54:57;14.20;99.90
12053;DHT22;6087;48.982;12.064;2022-10-16T05:57:25;14.20;99.90
12053;DHT22;6087;48.982;12.064;2022-10-16T05:59:52;14.20;99.90
12053;DHT22;6087;48.982;12.064;2022-10-16T06:02:19;14.20;99.90
12053;DHT22;6087;48.982;12.064;2022-10-16T06:04:46;14.20;99.90
12053;DHT22;6087;48.982;12.064;2022-10-16T06:07:13;14.20;99.90
12053;DHT22;6087;48.982;12.064;2022-10-16T06:09:40;14.20;99.90
12053;DHT22;6087;48.982;12.064;2022-10-16T06:12:07;14.20;99.90
12053;DHT22;6087;48.982;12.064;2022-10-16T06:14:35;14.20;99.90
12053;DHT22;6087;48.982;12.064;2022-10-16T06:17:02;14.20;99.90
12053;DHT22;6087;48.982;12.064;2022-10-16T06:19:29;14.20;99.90
12053;DHT22;6087;48.982;12.064;2022-10-16T06:21:57;14.20;99.90
12053;DHT22;6087;48.982;12.064;2022-10-16T06:24:24;14.20;99.90
12053;DHT22;6087;48.982;12.064;2022-10-16T06:26:51;14.20;99.90
12053;DHT22;6087;48.982;12.064;2022-10-16T06:29:18;14.20;99.90
12053;DHT22;6087;48.982;12.064;2022-10-16T06:31:47;14.20;99.90
12053;DHT22;6087;48.982;12.064;2022-10-16T06:34:14;14.20;99.90
12053;DHT22;6087;48.982;12.064;2022-10-16T06:36:41;14.20;99.90
12053;DHT22;6087;48.982;12.064;2022-10-16T06:39:09;14.20;99.90
12053;DHT22;6087;48.982;12.064;2022-10-16T06:41:35;14.20;99.90
12053;DHT22;6087;48.982;12.064;2022-10-16T06:44:05;14.20;99.90
12053;DHT22;6087;48.982;12.064;2022-10-16T06:46:32;14.20;99.90
12053;DHT22;6087;48.982;12.064;2022-10-16T06:49:00;14.30;99.90
12053;DHT22;6087;48.982;12.064;2022-10-16T06:51:27;14.20;99.90
12053;DHT22;6087;48.982;12.064;2022-10-16T06:53:55;14.30;99.90
12053;DHT22;6087;48.982;12.064;2022-10-16T06:56:24;14.30;99.90
12053;DHT22;6087;48.982;12.064;2022-10-16T06:58:52;14.30;99.90
12053;DHT22;6087;48.982;12.064;2022-10-16T07:01:21;14.30;99.90
12053;DHT22;6087;48.982;12.064;2022-10-16T07:03:48;14.30;99.90
12053;DHT22;6087;48.982;12.064;2022-10-16T07:06:19;14.30;99.90
12053;DHT22;6087;48.982;12.064;2022-10-16T07:08:46;14.30;99.90
12053;DHT22;6087;48.982;12.064;2022-10-16T07:11:15;14.30;99.90
12053;DHT22;6087;48.982;12.064;2022-10-16T07:13:43;14.30;99.90
12053;DHT22;6087;48.982;12.064;2022-10-16T07:16:11;14.30;99.90
12053;DHT22;6087;48.982;12.064;2022-10-16T07:18:39;14.40;99.90
12053;DHT22;6087;48.982;12.064;2022-10-16T07:21:07;14.40;99.90
12053;DHT22;6087;48.982;12.064;2022-10-16T07:23:36;14.40;99.90
12053;DHT22;6087;48.982;12.064;2022-10-16T07:26:03;14.40;99.90
12053;DHT22;6087;48.982;12.064;2022-10-16T07:28:30;14.40;99.90
12053;DHT22;6087;48.982;12.064;2022-10-16T07:31:00;14.40;99.90
12053;DHT22;6087;48.982;12.064;2022-10-16T07:33:28;14.40;99.90
12053;DHT22;6087;48.982;12.064;2022-10-16T07:35:55;14.50;99.90
12053;DHT22;6087;48.982;12.064;2022-10-16T07:38:22;14.50;99.90
12053;DHT22;6087;48.982;12.064;2022-10-16T07:40:56;14.50;99.90
12053;DHT22;6087;48.982;12.064;2022-10-16T07:43:23;14.50;99.90
12053;DHT22;6087;48.982;12.064;2022-10-16T07:45:51;14.60;99.90
12053;DHT22;6087;48.982;12.064;2022-10-16T07:48:18;14.60;99.90
12053;DHT22;6087;48.982;12.064;2022-10-16T07:50:45;14.60;99.90
12053;DHT22;6087;48.982;12.064;2022-10-16T07:53:13;14.70;99.90
12053;DHT22;6087;48.982;12.064;2022-10-16T07:55:40;14.80;99.90
12053;DHT22;6087;48.982;12.064;2022-10-16T07:58:08;14.80;99.90
12053;DHT22;6087;48.982;12.064;2022-10-16T08:00:36;14.80;99.90
12053;DHT22;6087;48.982;12.064;2022-10-16T08:03:03;14.80;99.90
12053;DHT22;6087;48.982;12.064;2022-10-16T08:05:32;14.80;99.90
12053;DHT22;6087;48.982;12.064;2022-10-16T08:08:00;14.80;99.90
12053;DHT22;6087;48.982;12.064;2022-10-16T08:10:28;14.90;99.90
12053;DHT22;6087;48.982;12.064;2022-10-16T08:12:57;14.90;99.90
12053;DHT22;6087;48.982;12.064;2022-10-16T08:15:25;14.90;99.90
12053;DHT22;6087;48.982;12.064;2022-10-16T08:17:57;14.90;99.90
12053;DHT22;6087;48.982;12.064;2022-10-16T08:20:25;14.90;99.90
12053;DHT22;6087;48.982;12.064;2022-10-16T08:22:52;15.00;99.90
12053;DHT22;6087;48.982;12.064;2022-10-16T08:25:19;15.00;99.90
12053;DHT22;6087;48.982;12.064;2022-10-16T08:27:46;15.10;99.90
12053;DHT22;6087;48.982;12.064;2022-10-16T08:30:13;15.10;99.90
12053;DHT22;6087;48.982;12.064;2022-10-16T08:32:42;15.20;99.90
12053;DHT22;6087;48.982;12.064;2022-10-16T08:35:09;15.20;99.90
12053;DHT22;6087;48.982;12.064;2022-10-16T08:37:37;15.20;99.90
12053;DHT22;6087;48.982;12.064;2022-10-16T08:40:05;15.20;99.90
12053;DHT22;6087;48.982;12.064;2022-10-16T08:42:44;15.30;99.90
12053;DHT22;6087;48.982;12.064;2022-10-16T08:45:38;15.30;99.90
12053;DHT22;6087;48.982;12.064;2022-10-16T08:48:17;15.30;99.90
12053;DHT22;6087;48.982;12.064;2022-10-16T08:50:45;15.40;99.90
12053;DHT22;6087;48.982;12.064;2022-10-16T08:53:20;15.40;99.90
12053;DHT22;6087;48.982;12.064;2022-10-16T08:55:51;15.40;99.90
12053;DHT22;6087;48.982;12.064;2022-10-16T08:58:20;15.50;99.90
12053;DHT22;6087;48.982;12.064;2022-10-16T09:00:49;15.50;99.90
12053;DHT22;6087;48.982;12.064;2022-10-16T09:03:24;15.50;99.90
12053;DHT22;6087;48.982;12.064;2022-10-16T09:06:06;15.50;99.90
12053;DHT22;6087;48.982;12.064;2022-10-16T09:08:41;15.60;99.90
12053;DHT22;6087;48.982;12.064;2022-10-16T09:11:19;15.60;99.90
12053;DHT22;6087;48.982;12.064;2022-10-16T09:13:51;15.60;99.90
12053;DHT22;6087;48.982;12.064;2022-10-16T09:16:25;15.60;99.90
12053;DHT22;6087;48.982;12.064;2022-10-16T09:19:00;15.60;99.90
12053;DHT22;6087;48.982;12.064;2022-10-16T09:21:30;15.60;99.90
12053;DHT22;6087;48.982;12.064;2022-10-16T09:23:59;15.70;99.90
12053;DHT22;6087;48.982;12.064;2022-10-16T09:26:26;15.70;99.90
12053;DHT22;6087;48.982;12.064;2022-10-16T09:28:53;15.70;99.90
12053;DHT22;6087;48.982;12.064;2022-10-16T09:31:22;15.70;99.90
12053;DHT22;6087;48.982;12.064;2022-10-16T09:33:52;15.80;99.90
12053;DHT22;6087;48.982;12.064;2022-10-16T09:36:23;15.80;99.90
12053;DHT22;6087;48.982;12.064;2022-10-16T09:39:02;15.80;99.90
12053;DHT22;6087;48.982;12.064;2022-10-16T09:41:29;15.90;99.90
12053;DHT22;6087;48.982;12.064;2022-10-16T09:43:57;15.90;99.90
12053;DHT22;6087;48.982;12.064;2022-10-16T09:46:27;15.90;99.90
12053;DHT22;6087;48.982;12.064;2022-10-16T09:48:57;15.90;99.90
12053;DHT22;6087;48.982;12.064;2022-10-16T09:51:27;16.00;99.90
12053;DHT22;6087;48.982;12.064;2022-10-16T09:53:56;16.00;99.90
12053;DHT22;6087;48.982;12.064;2022-10-16T09:56:24;16.10;99.90
12053;DHT22;6087;48.982;12.064;2022-10-16T09:58:53;16.20;99.90
12053;DHT22;6087;48.982;12.064;2022-10-16T10:01:22;16.20;99.90
12053;DHT22;6087;48.982;12.064;2022-10-16T10:03:50;16.30;99.90
12053;DHT22;6087;48.982;12.064;2022-10-16T10:06:29;16.30;99.90
12053;DHT22;6087;48.982;12.064;2022-10-16T10:09:03;16.40;99.90
12053;DHT22;6087;48.982;12.064;2022-10-16T10:11:45;16.50;99.90
12053;DHT22;6087;48.982;12.064;2022-10-16T10:14:38;16.50;99.90
12053;DHT22;6087;48.982;12.064;2022-10-16T10:17:12;16.60;99.90
12053;DHT22;6087;48.982;12.064;2022-10-16T10:19:42;16.80;99.90
12053;DHT22;6087;48.982;12.064;2022-10-16T10:22:24;16.80;99.90
12053;DHT22;6087;48.982;12.064;2022-10-16T10:25:15;16.80;99.90
12053;DHT22;6087;48.982;12.064;2022-10-16T10:27:59;16.90;99.90
12053;DHT22;6087;48.982;12.064;2022-10-16T10:30:37;16.90;99.90
12053;DHT22;6087;48.982;12.064;2022-10-16T10:33:16;16.90;99.90
12053;DHT22;6087;48.982;12.064;2022-10-16T10:35:51;17.00;99.90
12053;DHT22;6087;48.982;12.064;2022-10-16T10:38:28;17.00;99.90
12053;DHT22;6087;48.982;12.064;2022-10-16T10:41:03;17.20;99.90
12053;DHT22;6087;48.982;12.064;2022-10-16T10:43:47;17.30;99.90
12053;DHT22;6087;48.982;12.064;2022-10-16T10:46:20;17.40;99.90
12053;DHT22;6087;48.982;12.064;2022-10-16T10:49:12;17.50;99.90
12053;DHT22;6087;48.982;12.064;2022-10-16T10:51:51;17.60;99.90
12053;DHT22;6087;48.982;12.064;2022-10-16T10:54:26;17.60;99.90
12053;DHT22;6087;48.982;12.064;2022-10-16T10:56:58;17.60;99.90
12053;DHT22;6087;48.982;12.064;2022-10-16T10:59:51;17.70;99.90
12053;DHT22;6087;48.982;12.064;2022-10-16T11:02:25;17.70;99.90
12053;DHT22;6087;48.982;12.064;2022-10-16T11:05:03;17.80;99.90
12053;DHT22;6087;48.982;12.064;2022-10-16T11:07:37;17.90;99.90
12053;DHT22;6087;48.982;12.064;2022-10-16T11:10:14;18.00;99.90
12053;DHT22;6087;48.982;12.064;2022-10-16T11:12:47;18.10;99.90
12053;DHT22;6087;48.982;12.064;2022-10-16T11:15:18;18.20;99.90
12053;DHT22;6087;48.982;12.064;2022-10-16T11:17:50;18.30;99.90
12053;DHT22;6087;48.982;12.064;2022-10-16T11:20:20;18.40;99.90
12053;DHT22;6087;48.982;12.064;2022-10-16T11:22:53;18.40;99.90
12053;DHT22;6087;48.982;12.064;2022-10-16T11:25:25;18.50;99.90
12053;DHT22;6087;48.982;12.064;2022-10-16T11:27:57;18.50;99.90
12053;DHT22;6087;48.982;12.064;2022-10-16T11:30:27;18.60;99.90
12053;DHT22;6087;48.982;12.064;2022-10-16T11:33:03;18.70;99.90
12053;DHT22;6087;48.982;12.064;2022-10-16T11:35:39;18.90;99.90
12053;DHT22;6087;48.982;12.064;2022-10-16T11:38:14;18.90;99.90
12053;DHT22;6087;48.982;12.064;2022-10-16T11:40:45;19.10;99.90
12053;DHT22;6087;48.982;12.064;2022-10-16T11:43:19;19.30;99.90
12053;DHT22;6087;48.982;12.064;2022-10-16T11:45:51;19.40;99.90
12053;DHT22;6087;48.982;12.064;2022-10-16T11:48:25;20.00;99.90
12053;DHT22;6087;48.982;12.064;2022-10-16T11:50:54;20.80;99.90
12053;DHT22;6087;48.982;12.064;2022-10-16T11:53:33;21.60;14.50
12053;DHT22;6087;48.982;12.064;2022-10-16T11:56:05;21.90;1.00
12053;DHT22;6087;48.982;12.064;2022-10-16T11:58:34;21.90;1.00
12053;DHT22;6087;48.982;12.064;2022-10-16T12:01:16;21.80;1.00
12053;DHT22;6087;48.982;12.064;2022-10-16T12:03:48;21.60;1.00
12053;DHT22;6087;48.982;12.064;2022-10-16T12:06:28;21.50;1.00
12053;DHT22;6087;48.982;12.064;2022-10-16T12:08:59;21.40;1.00
12053;DHT22;6087;48.982;12.064;2022-10-16T12:11:38;21.40;1.00
12053;DHT22;6087;48.982;12.064;2022-10-16T12:14:36;21.50;1.00
12053;DHT22;6087;48.982;12.064;2022-10-16T12:17:22;21.60;1.00
12053;DHT22;6087;48.982;12.064;2022-10-16T12:19:58;21.60;1.00
12053;DHT22;6087;48.982;12.064;2022-10-16T12:22:28;21.60;1.00
12053;DHT22;6087;48.982;12.064;2022-10-16T12:24:55;21.70;1.00
12053;DHT22;6087;48.982;12.064;2022-10-16T12:27:28;21.70;1.00
12053;DHT22;6087;48.982;12.064;2022-10-16T12:29:57;21.80;99.90
12053;DHT22;6087;48.982;12.064;2022-10-16T12:32:29;22.20;1.00
12053;DHT22;6087;48.982;12.064;2022-10-16T12:34:57;23.30;4.00
12053;DHT22;6087;48.982;12.064;2022-10-16T12:37:26;24.60;99.90
12053;DHT22;6087;48.982;12.064;2022-10-16T12:39:55;25.30;17.50
12053;DHT22;6087;48.982;12.064;2022-10-16T12:42:32;25.60;1.00
12053;DHT22;6087;48.982;12.064;2022-10-16T12:45:01;26.00;1.00
12053;DHT22;6087;48.982;12.064;2022-10-16T12:47:48;26.40;99.90
12053;DHT22;6087;48.982;12.064;2022-10-16T12:50:30;26.20;1.00
12053;DHT22;6087;48.982;12.064;2022-10-16T12:52:58;25.90;1.00
12053;DHT22;6087;48.982;12.064;2022-10-16T12:55:26;25.90;99.90
12053;DHT22;6087;48.982;12.064;2022-10-16T13:01:10;26.30;1.00
12053;DHT22;6087;48.982;12.064;2022-10-16T13:06:45;25.40;99.90
12053;DHT22;6087;48.982;12.064;2022-10-16T13:09:27;25.00;99.90
12053;DHT22;6087;48.982;12.064;2022-10-16T13:12:30;24.60;99.90
12053;DHT22;6087;48.982;12.064;2022-10-16T13:15:19;24.20;99.90
12053;DHT22;6087;48.982;12.064;2022-10-16T13:17:56;23.60;99.90
12053;DHT22;6087;48.982;12.064;2022-10-16T13:20:31;23.40;1.00
12053;DHT22;6087;48.982;12.064;2022-10-16T13:23:11;23.90;32.60
12053;DHT22;6087;48.982;12.064;2022-10-16T13:25:50;25.50;99.90
12053;DHT22;6087;48.982;12.064;2022-10-16T13:28:27;26.80;99.90
12053;DHT22;6087;48.982;12.064;2022-10-16T13:30:57;28.10;6.30
12053;DHT22;6087;48.982;12.064;2022-10-16T13:33:32;28.90;1.00
12053;DHT22;6087;48.982;12.064;2022-10-16T13:36:00;29.90;99.90
12053;DHT22;6087;48.982;12.064;2022-10-16T13:38:28;30.50;1.00
12053;DHT22;6087;48.982;12.064;2022-10-16T13:40:59;31.20;1.00
12053;DHT22;6087;48.982;12.064;2022-10-16T13:43:34;32.30;1.00
12053;DHT22;6087;48.982;12.064;2022-10-16T13:46:03;33.20;1.00
12053;DHT22;6087;48.982;12.064;2022-10-16T13:48:33;34.00;1.00
12053;DHT22;6087;48.982;12.064;2022-10-16T13:51:06;34.50;1.00
12053;DHT22;6087;48.982;12.064;2022-10-16T13:53:34;34.80;1.00
12053;DHT22;6087;48.982;12.064;2022-10-16T13:56:05;35.20;1.00
12053;DHT22;6087;48.982;12.064;2022-10-16T13:58:33;35.10;1.00
12053;DHT22;6087;48.982;12.064;2022-10-16T14:01:02;34.50;1.00
12053;DHT22;6087;48.982;12.064;2022-10-16T14:03:33;34.40;1.00
12053;DHT22;6087;48.982;12.064;2022-10-16T14:06:03;34.30;1.00
12053;DHT22;6087;48.982;12.064;2022-10-16T14:08:31;34.40;1.00
12053;DHT22;6087;48.982;12.064;2022-10-16T14:11:00;34.60;1.00
12053;DHT22;6087;48.982;12.064;2022-10-16T14:13:31;34.60;1.00
12053;DHT22;6087;48.982;12.064;2022-10-16T14:16:04;34.40;1.00
12053;DHT22;6087;48.982;12.064;2022-10-16T14:18:40;34.40;1.00
12053;DHT22;6087;48.982;12.064;2022-10-16T14:21:11;34.60;1.00
12053;DHT22;6087;48.982;12.064;2022-10-16T14:23:40;34.10;1.00
12053;DHT22;6087;48.982;12.064;2022-10-16T14:26:15;33.50;1.00
12053;DHT22;6087;48.982;12.064;2022-10-16T14:28:47;32.60;1.00
12053;DHT22;6087;48.982;12.064;2022-10-16T14:31:27;32.10;1.00
12053;DHT22;6087;48.982;12.064;2022-10-16T14:33:55;31.30;1.00
12053;DHT22;6087;48.982;12.064;2022-10-16T14:36:23;30.60;1.00
12053;DHT22;6087;48.982;12.064;2022-10-16T14:39:00;29.80;1.00
12053;DHT22;6087;48.982;12.064;2022-10-16T14:41:28;29.10;1.00
12053;DHT22;6087;48.982;12.064;2022-10-16T14:43:56;28.50;1.00
12053;DHT22;6087;48.982;12.064;2022-10-16T14:46:30;28.10;1.00
12053;DHT22;6087;48.982;12.064;2022-10-16T14:49:02;27.60;1.00
12053;DHT22;6087;48.982;12.064;2022-10-16T14:51:30;27.20;1.00
12053;DHT22;6087;48.982;12.064;2022-10-16T14:53:57;26.80;1.00
12053;DHT22;6087;48.982;12.064;2022-10-16T14:56:26;26.40;1.00
12053;DHT22;6087;48.982;12.064;2022-10-16T14:58:55;26.10;99.90
12053;DHT22;6087;48.982;12.064;2022-10-16T15:01:23;25.60;99.90
12053;DHT22;6087;48.982;12.064;2022-10-16T15:03:49;25.30;99.90
12053;DHT22;6087;48.982;12.064;2022-10-16T15:06:19;25.00;99.90
12053;DHT22;6087;48.982;12.064;2022-10-16T15:08:46;24.80;1.00
12053;DHT22;6087;48.982;12.064;2022-10-16T15:11:15;24.60;1.00
12053;DHT22;6087;48.982;12.064;2022-10-16T15:13:42;24.30;1.00
12053;DHT22;6087;48.982;12.064;2022-10-16T15:16:12;24.10;1.00
12053;DHT22;6087;48.982;12.064;2022-10-16T15:18:39;24.00;56.80
12053;DHT22;6087;48.982;12.064;2022-10-16T15:21:06;23.80;1.00
12053;DHT22;6087;48.982;12.064;2022-10-16T15:23:35;23.60;1.00
12053;DHT22;6087;48.982;12.064;2022-10-16T15:26:02;23.50;1.00
12053;DHT22;6087;48.982;12.064;2022-10-16T15:28:29;23.30;1.00
12053;DHT22;6087;48.982;12.064;2022-10-16T15:30:57;23.10;1.00
12053;DHT22;6087;48.982;12.064;2022-10-16T15:33:25;23.00;1.00
12053;DHT22;6087;48.982;12.064;2022-10-16T15:35:55;22.80;1.00
12053;DHT22;6087;48.982;12.064;2022-10-16T15:38:22;22.70;1.00
12053;DHT22;6087;48.982;12.064;2022-10-16T15:40:51;22.50;1.00
12053;DHT22;6087;48.982;12.064;2022-10-16T15:43:18;22.30;1.00
12053;DHT22;6087;48.982;12.064;2022-10-16T15:45:57;22.20;1.00
12053;DHT22;6087;48.982;12.064;2022-10-16T15:48:25;22.00;1.00
12053;DHT22;6087;48.982;12.064;2022-10-16T15:50:51;21.90;1.00
12053;DHT22;6087;48.982;12.064;2022-10-16T15:53:18;21.80;1.00
12053;DHT22;6087;48.982;12.064;2022-10-16T15:55:45;21.60;1.00
12053;DHT22;6087;48.982;12.064;2022-10-16T15:58:14;21.60;1.00
12053;DHT22;6087;48.982;12.064;2022-10-16T16:00:41;21.50;1.00